createdAt,value
2018-05-23T00:02:27.251Z,20.01
2018-05-23T00:04:56.899Z,20.06
2018-05-23T00:07:25.389Z,20.04
2018-05-23T00:09:54.109Z,20.05
2018-05-23T00:12:22.492Z,20.03
2018-05-23T00:14:50.849Z,20.03
2018-05-23T00:17:20.475Z,20.03
2018-05-23T00:19:49.585Z,19.98
2018-05-23T00:22:20.443Z,19.96
2018-05-23T00:24:48.951Z,19.99
2018-05-23T00:27:17.981Z,20.00
2018-05-23T00:29:46.328Z,20.00
2018-05-23T00:32:14.717Z,19.99
2018-05-23T00:34:43.389Z,19.99
2018-05-23T00:37:11.733Z,19.97
2018-05-23T00:39:40.103Z,19.95
2018-05-23T00:42:08.567Z,19.94
2018-05-23T00:44:38.001Z,19.95
2018-05-23T00:47:06.387Z,19.95
2018-05-23T00:49:34.730Z,19.92
2018-05-23T00:52:03.840Z,19.93
2018-05-23T00:54:33.052Z,19.89
2018-05-23T00:57:01.611Z,19.85
2018-05-23T00:59:30.842Z,19.82
2018-05-23T01:01:59.396Z,19.77
2018-05-23T01:04:28.582Z,19.76
2018-05-23T01:06:57.647Z,19.80
2018-05-23T01:09:25.977Z,19.70
2018-05-23T01:11:55.072Z,19.71
2018-05-23T01:14:24.157Z,19.76
2018-05-23T01:16:53.296Z,19.73
2018-05-23T01:19:21.702Z,19.69
2018-05-23T01:21:50.729Z,19.71
2018-05-23T01:24:19.838Z,19.69
2018-05-23T01:26:48.260Z,19.68
2018-05-23T01:29:17.546Z,19.63
2018-05-23T01:31:45.915Z,19.57
2018-05-23T01:34:14.960Z,19.59
2018-05-23T01:36:43.350Z,19.62
2018-05-23T01:39:12.769Z,19.60
2018-05-23T01:41:41.147Z,19.58
2018-05-23T01:44:10.320Z,19.55
2018-05-23T01:46:38.713Z,19.48
2018-05-23T01:49:25.733Z,19.47
2018-05-23T01:51:55.237Z,19.43
2018-05-23T01:54:24.329Z,19.44
2018-05-23T01:56:53.449Z,19.43
2018-05-23T01:59:22.439Z,19.35
2018-05-23T02:01:50.988Z,19.33
2018-05-23T02:04:19.657Z,19.32
2018-05-23T02:06:49.082Z,19.32
2018-05-23T02:09:18.230Z,19.30
2018-05-23T02:11:46.669Z,19.30
2018-05-23T02:14:16.648Z,19.33
2018-05-23T02:16:45.750Z,19.35
2018-05-23T02:19:15.239Z,19.29
2018-05-23T02:21:44.622Z,19.31
2018-05-23T02:24:12.981Z,19.33
2018-05-23T02:26:41.359Z,19.30
2018-05-23T02:29:09.715Z,19.24
2018-05-23T02:31:39.622Z,19.27
2018-05-23T02:34:08.699Z,19.28
2018-05-23T02:36:37.083Z,19.25
2018-05-23T02:39:06.340Z,19.20
2018-05-23T02:41:34.705Z,19.20
2018-05-23T02:44:03.021Z,19.15
2018-05-23T02:46:31.428Z,19.14
2018-05-23T02:48:59.767Z,19.17
2018-05-23T02:51:28.119Z,19.14
2018-05-23T02:53:56.518Z,19.12
2018-05-23T02:56:25.535Z,19.06
2018-05-23T02:58:54.219Z,19.01
2018-05-23T03:01:22.587Z,18.97
2018-05-23T03:03:50.941Z,18.89
2018-05-23T03:06:20.110Z,18.92
2018-05-23T03:08:51.966Z,18.94
2018-05-23T03:11:21.981Z,18.93
2018-05-23T03:13:51.182Z,18.97
2018-05-23T03:16:21.297Z,18.96
2018-05-23T03:18:49.956Z,18.96
2018-05-23T03:21:20.074Z,18.98
2018-05-23T03:23:49.443Z,18.93
2018-05-23T03:26:18.577Z,18.93
2018-05-23T03:28:46.945Z,18.91
2018-05-23T03:31:15.351Z,18.90
2018-05-23T03:33:43.710Z,18.88
2018-05-23T03:36:13.142Z,18.92
2018-05-23T03:38:42.243Z,18.89
2018-05-23T03:41:10.631Z,18.92
2018-05-23T03:43:39.775Z,18.95
2018-05-23T03:46:08.138Z,18.93
2018-05-23T03:48:36.996Z,18.91
2018-05-23T03:51:06.193Z,18.91
2018-05-23T03:53:36.257Z,18.91
2018-05-23T03:56:05.621Z,18.88
2018-05-23T03:58:34.832Z,18.82
2018-05-23T04:04:36.998Z,18.83
2018-05-23T04:10:18.843Z,18.74
2018-05-23T04:12:48.559Z,18.71
2018-05-23T04:15:17.758Z,18.69
2018-05-23T04:17:47.188Z,18.68
2018-05-23T04:20:15.611Z,18.69
2018-05-23T04:22:44.762Z,18.70
2018-05-23T04:25:13.951Z,18.65
2018-05-23T04:27:42.954Z,18.64
2018-05-23T04:30:12.127Z,18.62
2018-05-23T04:32:41.839Z,18.64
2018-05-23T04:35:10.214Z,18.62
2018-05-23T04:37:40.185Z,18.63
2018-05-23T04:40:09.160Z,18.66
2018-05-23T04:42:38.535Z,18.67
2018-05-23T04:45:07.124Z,18.71
2018-05-23T04:47:35.710Z,18.73
2018-05-23T04:50:04.089Z,18.74
2018-05-23T04:52:32.481Z,18.71
2018-05-23T04:55:01.513Z,18.71
2018-05-23T04:57:30.705Z,18.69
2018-05-23T05:00:01.473Z,18.70
2018-05-23T05:02:30.398Z,18.67
2018-05-23T05:04:59.674Z,18.66
2018-05-23T05:07:30.417Z,18.68
2018-05-23T05:09:59.485Z,18.66
2018-05-23T05:12:28.585Z,18.69
2018-05-23T05:14:57.907Z,18.69
2018-05-23T05:17:27.606Z,18.67
2018-05-23T05:19:56.628Z,18.66
2018-05-23T05:22:24.961Z,18.65
2018-05-23T05:24:54.971Z,18.63
2018-05-23T05:27:25.144Z,18.64
2018-05-23T05:29:54.840Z,18.56
2018-05-23T05:32:23.192Z,18.57
2018-05-23T05:34:51.873Z,18.60
2018-05-23T05:37:20.508Z,18.62
2018-05-23T05:39:48.882Z,18.65
2018-05-23T05:42:19.089Z,18.57
2018-05-23T05:44:49.037Z,18.69
2018-05-23T05:47:18.747Z,18.75
2018-05-23T05:49:47.125Z,18.81
2018-05-23T05:52:15.545Z,18.83
2018-05-23T05:54:44.720Z,18.88
2018-05-23T05:57:13.833Z,18.89
2018-05-23T05:59:43.085Z,18.92
2018-05-23T06:02:11.521Z,18.95
2018-05-23T06:04:39.905Z,19.02
2018-05-23T06:07:08.339Z,19.02
2018-05-23T06:09:37.518Z,19.02
2018-05-23T06:12:05.924Z,19.04
2018-05-23T06:14:35.140Z,19.10
2018-05-23T06:17:04.277Z,19.16
2018-05-23T06:19:33.354Z,19.26
2018-05-23T06:22:02.787Z,19.29
2018-05-23T06:24:31.249Z,19.35
2018-05-23T06:27:00.451Z,19.40
2018-05-23T06:29:28.947Z,19.46
2018-05-23T06:31:58.320Z,19.52
2018-05-23T06:34:26.680Z,19.61
2018-05-23T06:36:56.437Z,19.68
2018-05-23T06:39:24.792Z,19.62
2018-05-23T06:41:53.156Z,19.66
2018-05-23T06:44:21.499Z,19.83
2018-05-23T06:46:51.554Z,19.91
2018-05-23T06:49:20.704Z,19.99
2018-05-23T06:51:49.390Z,20.03
2018-05-23T06:54:18.516Z,20.07
2018-05-23T06:56:47.672Z,20.19
2018-05-23T06:59:16.143Z,20.22
2018-05-23T07:01:46.670Z,20.30
2018-05-23T07:04:15.412Z,20.35
2018-05-23T07:06:43.794Z,20.42
2018-05-23T07:09:12.181Z,20.43
2018-05-23T07:11:41.506Z,20.45
2018-05-23T07:14:10.539Z,20.38
2018-05-23T07:16:38.970Z,20.50
2018-05-23T07:19:07.530Z,20.55
2018-05-23T07:21:36.728Z,20.64
2018-05-23T07:24:05.947Z,20.74
2018-05-23T07:26:35.811Z,20.76
2018-05-23T07:29:04.270Z,20.83
2018-05-23T07:31:33.544Z,20.86
2018-05-23T07:34:02.883Z,20.96
2018-05-23T07:36:31.969Z,21.02
2018-05-23T07:39:00.326Z,21.10
2018-05-23T07:41:30.277Z,21.15
2018-05-23T07:43:59.916Z,21.19
2018-05-23T07:46:29.045Z,21.26
2018-05-23T07:48:57.757Z,21.29
2018-05-23T07:51:27.456Z,21.39
2018-05-23T07:53:56.146Z,21.41
2018-05-23T07:56:25.597Z,21.45
2018-05-23T07:58:54.731Z,21.51
2018-05-23T08:01:24.086Z,21.57
2018-05-23T08:03:53.440Z,21.65
2018-05-23T08:06:22.930Z,21.66
2018-05-23T08:08:52.120Z,21.65
2018-05-23T08:11:21.335Z,21.68
2018-05-23T08:13:51.055Z,21.72
2018-05-23T08:16:19.411Z,21.80
2018-05-23T08:18:47.781Z,21.87
2018-05-23T08:21:16.141Z,21.85
2018-05-23T08:23:44.499Z,21.94
2018-05-23T08:26:14.616Z,21.96
2018-05-23T08:28:44.898Z,21.97
2018-05-23T08:31:13.268Z,21.96
2018-05-23T08:33:43.413Z,21.97
2018-05-23T08:36:11.773Z,21.98
2018-05-23T08:38:40.959Z,22.00
2018-05-23T08:41:11.213Z,22.07
2018-05-23T08:43:40.130Z,22.06
2018-05-23T08:46:08.591Z,22.11
2018-05-23T08:48:37.724Z,22.15
2018-05-23T08:51:06.148Z,22.20
2018-05-23T08:53:35.242Z,22.24
2018-05-23T08:56:04.381Z,22.33
2018-05-23T08:58:35.140Z,22.32
2018-05-23T09:01:03.551Z,22.40
2018-05-23T09:03:31.970Z,22.45
2018-05-23T09:06:00.460Z,22.52
2018-05-23T09:08:31.418Z,22.57
2018-05-23T09:11:01.354Z,22.59
2018-05-23T09:13:31.033Z,22.60
2018-05-23T09:16:01.879Z,22.67
2018-05-23T09:18:30.325Z,22.69
2018-05-23T09:20:58.728Z,22.79
2018-05-23T09:23:27.862Z,22.85
2018-05-23T09:25:57.128Z,22.92
2018-05-23T09:28:26.999Z,22.99
2018-05-23T09:30:55.331Z,23.02
2018-05-23T09:33:25.226Z,23.05
2018-05-23T09:35:56.187Z,23.08
2018-05-23T09:38:24.554Z,23.13
2018-05-23T09:40:53.732Z,23.23
2018-05-23T09:43:23.932Z,23.30
2018-05-23T09:45:52.652Z,23.38
2018-05-23T09:48:21.829Z,23.43
2018-05-23T09:50:50.333Z,23.51
2018-05-23T09:53:20.573Z,23.56
2018-05-23T09:55:51.028Z,23.62
2018-05-23T09:58:19.509Z,23.70
2018-05-23T10:00:47.986Z,23.72
2018-05-23T10:03:18.753Z,23.75
2018-05-23T10:05:47.238Z,23.87
2018-05-23T10:08:15.628Z,23.96
2018-05-23T10:10:45.488Z,24.06
2018-05-23T10:13:15.011Z,24.24
2018-05-23T10:15:43.438Z,24.32
2018-05-23T10:18:14.373Z,24.38
2018-05-23T10:20:42.872Z,24.49
2018-05-23T10:23:11.449Z,24.55
2018-05-23T10:25:42.578Z,24.57
2018-05-23T10:28:12.501Z,24.66
2018-05-23T10:30:43.810Z,24.73
2018-05-23T10:33:13.696Z,24.87
2018-05-23T10:35:42.204Z,24.92
2018-05-23T10:38:11.527Z,24.96
2018-05-23T10:40:39.963Z,25.02
2018-05-23T10:43:08.317Z,25.08
2018-05-23T10:45:36.744Z,25.12
2018-05-23T10:48:05.142Z,25.19
2018-05-23T10:50:35.298Z,25.23
2018-05-23T10:53:03.822Z,25.22
2018-05-23T10:55:33.316Z,25.26
2018-05-23T10:58:02.770Z,25.27
2018-05-23T11:00:32.904Z,25.26
2018-05-23T11:06:34.510Z,25.33
2018-05-23T11:09:03.096Z,25.41
2018-05-23T11:11:32.255Z,25.35
2018-05-23T11:14:01.387Z,25.34
2018-05-23T11:16:30.602Z,25.39
2018-05-23T11:19:00.371Z,25.49
2018-05-23T11:21:29.597Z,25.51
2018-05-23T11:23:57.996Z,25.49
2018-05-23T11:26:27.985Z,25.56
2018-05-23T11:28:56.422Z,25.56
2018-05-23T11:31:25.609Z,25.54
2018-05-23T11:33:55.125Z,25.65
2018-05-23T11:36:25.663Z,25.70
2018-05-23T11:38:54.809Z,25.74
2018-05-23T11:41:25.300Z,25.88
2018-05-23T11:43:55.449Z,25.96
2018-05-23T11:46:24.645Z,26.08
2018-05-23T11:48:53.514Z,26.07
2018-05-23T11:51:22.561Z,26.04
2018-05-23T11:53:51.626Z,26.05
2018-05-23T11:56:22.436Z,25.99
2018-05-23T11:58:53.116Z,26.02
2018-05-23T12:01:22.901Z,26.06
2018-05-23T12:03:52.223Z,26.10
2018-05-23T12:06:24.034Z,26.08
2018-05-23T12:08:53.300Z,26.15
2018-05-23T12:11:22.576Z,26.13
2018-05-23T12:13:51.012Z,26.11
2018-05-23T12:16:21.120Z,26.06
2018-05-23T12:18:52.168Z,26.12
2018-05-23T12:21:21.726Z,26.08
2018-05-23T12:23:50.206Z,26.04
2018-05-23T12:26:18.701Z,26.06
2018-05-23T12:28:47.856Z,26.18
2018-05-23T12:31:17.397Z,26.23
2018-05-23T12:33:46.702Z,26.45
2018-05-23T12:36:15.271Z,26.61
2018-05-23T12:38:43.863Z,26.78
2018-05-23T12:41:12.820Z,26.95
2018-05-23T12:43:41.903Z,27.03
2018-05-23T12:46:12.992Z,27.23
2018-05-23T12:48:42.088Z,27.19
2018-05-23T12:51:11.870Z,27.30
2018-05-23T12:53:40.284Z,27.36
2018-05-23T12:56:08.760Z,27.36
2018-05-23T12:58:38.053Z,27.40
2018-05-23T13:01:06.496Z,27.46
2018-05-23T13:03:35.674Z,27.55
2018-05-23T13:06:05.581Z,27.59
2018-05-23T13:08:34.060Z,27.49
2018-05-23T13:11:02.450Z,27.54
2018-05-23T13:13:33.569Z,27.53
2018-05-23T13:16:02.305Z,27.47
2018-05-23T13:18:30.704Z,27.33
2018-05-23T13:20:59.173Z,27.27
2018-05-23T13:23:28.223Z,27.15
2018-05-23T13:25:56.722Z,27.08
2018-05-23T13:28:26.532Z,27.12
2018-05-23T13:30:56.605Z,27.13
2018-05-23T13:33:26.503Z,27.10
2018-05-23T13:35:55.291Z,27.27
2018-05-23T13:38:24.625Z,27.50
2018-05-23T13:40:53.817Z,27.70
2018-05-23T13:43:22.433Z,27.76
2018-05-23T13:45:51.570Z,27.85
2018-05-23T13:48:20.276Z,27.90
2018-05-23T13:50:49.103Z,28.22
2018-05-23T13:53:19.346Z,28.47
2018-05-23T13:55:49.084Z,28.66
2018-05-23T13:58:17.669Z,28.66
2018-05-23T14:00:46.114Z,28.58
2018-05-23T14:03:15.267Z,28.47
2018-05-23T14:05:44.912Z,28.32
2018-05-23T14:08:14.035Z,28.23
2018-05-23T14:10:44.135Z,28.20
2018-05-23T14:13:13.324Z,28.27
2018-05-23T14:15:43.491Z,28.35
2018-05-23T14:18:11.859Z,28.43
2018-05-23T14:20:40.301Z,28.39
2018-05-23T14:23:10.815Z,28.47
2018-05-23T14:25:41.011Z,28.42
2018-05-23T14:28:11.307Z,28.50
2018-05-23T14:30:39.646Z,28.47
2018-05-23T14:33:08.870Z,28.48
2018-05-23T14:35:37.294Z,28.53
2018-05-23T14:38:06.444Z,28.56
2018-05-23T14:40:36.449Z,28.56
2018-05-23T14:43:05.712Z,28.64
2018-05-23T14:45:34.572Z,28.71
2018-05-23T14:48:04.564Z,28.80
2018-05-23T14:50:33.944Z,28.91
2018-05-23T14:53:02.481Z,28.94
2018-05-23T14:55:31.757Z,28.97
2018-05-23T14:58:00.270Z,29.03
2018-05-23T15:00:29.057Z,28.99
2018-05-23T15:02:57.405Z,28.95
2018-05-23T15:05:25.777Z,28.96
2018-05-23T15:07:55.009Z,28.98
2018-05-23T15:10:23.391Z,28.82
2018-05-23T15:12:51.835Z,28.77
2018-05-23T15:15:21.186Z,28.67
2018-05-23T15:17:49.952Z,28.49
2018-05-23T15:20:18.308Z,28.31
2018-05-23T15:22:48.542Z,28.36
2018-05-23T15:25:16.955Z,28.45
2018-05-23T15:27:45.306Z,28.44
2018-05-23T15:30:13.812Z,28.31
2018-05-23T15:32:42.304Z,28.02
2018-05-23T15:35:10.693Z,27.79
2018-05-23T15:37:39.972Z,27.52
2018-05-23T15:40:08.401Z,27.34
2018-05-23T15:42:38.446Z,27.16
2018-05-23T15:45:07.914Z,26.93
2018-05-23T15:47:36.271Z,26.86
2018-05-23T15:50:05.164Z,26.81
2018-05-23T15:52:33.543Z,26.78
2018-05-23T15:55:01.898Z,26.68
2018-05-23T15:57:30.338Z,26.65
2018-05-23T15:59:58.700Z,26.47
2018-05-23T16:02:27.859Z,26.37
2018-05-23T16:04:56.371Z,26.37
2018-05-23T16:07:25.661Z,26.27
2018-05-23T16:09:54.056Z,26.24
2018-05-23T16:12:23.500Z,26.19
2018-05-23T16:14:52.840Z,26.21
2018-05-23T16:17:21.328Z,26.18
2018-05-23T16:19:50.613Z,26.11
2018-05-23T16:22:19.065Z,26.14
2018-05-23T16:24:47.438Z,26.15
2018-05-23T16:27:16.742Z,26.13
2018-05-23T16:29:46.103Z,26.10
2018-05-23T16:32:15.243Z,26.08
2018-05-23T16:34:44.198Z,26.03
2018-05-23T16:37:14.895Z,25.92
2018-05-23T16:39:43.293Z,25.85
2018-05-23T16:42:12.443Z,25.80
2018-05-23T16:44:43.127Z,25.69
2018-05-23T16:47:12.071Z,25.64
2018-05-23T16:49:40.471Z,25.57
2018-05-23T16:52:08.915Z,25.54
2018-05-23T16:54:37.208Z,25.52
2018-05-23T16:57:05.635Z,25.59
2018-05-23T16:59:34.796Z,25.63
2018-05-23T17:02:03.178Z,25.64
2018-05-23T17:04:31.611Z,25.72
2018-05-23T17:07:01.090Z,25.68
2018-05-23T17:09:29.639Z,25.60
2018-05-23T17:11:58.024Z,25.45
2018-05-23T17:14:26.397Z,25.36
2018-05-23T17:16:54.927Z,25.21
2018-05-23T17:19:24.215Z,25.10
2018-05-23T17:21:53.467Z,25.04
2018-05-23T17:24:22.325Z,24.97
2018-05-23T17:26:51.464Z,24.92
2018-05-23T17:29:19.854Z,24.90
2018-05-23T17:31:48.277Z,24.94
2018-05-23T17:34:17.686Z,24.92
2018-05-23T17:36:46.168Z,24.89
2018-05-23T17:39:14.574Z,24.91
2018-05-23T17:41:42.989Z,24.93
2018-05-23T17:44:12.000Z,24.91
2018-05-23T17:46:41.135Z,24.84
2018-05-23T17:49:09.510Z,24.78
2018-05-23T17:51:37.904Z,24.77
2018-05-23T17:54:06.350Z,24.68
2018-05-23T17:56:35.529Z,24.65
2018-05-23T17:59:05.574Z,24.66
2018-05-23T18:01:33.946Z,24.67
2018-05-23T18:04:03.137Z,24.59
2018-05-23T18:06:32.452Z,24.60
2018-05-23T18:09:01.801Z,24.53
2018-05-23T18:11:30.211Z,24.49
2018-05-23T18:13:59.401Z,24.49
2018-05-23T18:16:28.615Z,24.38
2018-05-23T18:18:57.753Z,24.38
2018-05-23T18:21:26.312Z,24.35
2018-05-23T18:23:55.722Z,24.31
2018-05-23T18:26:24.116Z,24.25
2018-05-23T18:28:52.493Z,24.18
2018-05-23T18:31:20.872Z,24.16
2018-05-23T18:33:49.261Z,24.11
2018-05-23T18:36:17.752Z,24.01
2018-05-23T18:38:47.337Z,23.98
2018-05-23T18:41:17.259Z,23.92
2018-05-23T18:43:47.263Z,23.89
2018-05-23T18:46:16.543Z,23.90
2018-05-23T18:48:45.015Z,23.90
2018-05-23T18:51:14.233Z,23.86
2018-05-23T18:53:42.728Z,23.80
2018-05-23T18:56:11.777Z,23.81
2018-05-23T18:58:40.913Z,23.76
2018-05-23T19:01:09.501Z,23.74
2018-05-23T19:03:38.811Z,23.68
2018-05-23T19:06:09.919Z,23.63
2018-05-23T19:08:39.250Z,23.59
2018-05-23T19:11:09.310Z,23.56
2018-05-23T19:13:37.744Z,23.53
2018-05-23T19:16:06.106Z,23.47
2018-05-23T19:18:35.439Z,23.43
2018-05-23T19:21:03.843Z,23.37
2018-05-23T19:23:32.764Z,23.32
2018-05-23T19:26:01.248Z,23.28
2018-05-23T19:28:30.448Z,23.22
2018-05-23T19:30:58.887Z,23.17
2018-05-23T19:33:28.363Z,23.11
2018-05-23T19:35:56.868Z,23.07
2018-05-23T19:38:25.371Z,23.06
2018-05-23T19:40:54.877Z,23.05
2018-05-23T19:43:26.105Z,22.94
2018-05-23T19:45:54.539Z,22.88
2018-05-23T19:48:22.920Z,22.85
2018-05-23T19:50:51.323Z,22.74
2018-05-23T19:53:20.558Z,22.70
2018-05-23T19:55:48.951Z,22.63
2018-05-23T19:58:18.062Z,22.60
2018-05-23T20:00:47.510Z,22.54
2018-05-23T20:03:17.737Z,22.48
2018-05-23T20:05:46.383Z,22.47
2018-05-23T20:08:15.068Z,22.43
2018-05-23T20:10:44.119Z,22.41
2018-05-23T20:13:12.634Z,22.35
2018-05-23T20:15:41.207Z,22.34
2018-05-23T20:18:10.571Z,22.27
2018-05-23T20:20:39.057Z,22.20
2018-05-23T20:23:08.277Z,22.20
2018-05-23T20:25:38.495Z,22.15
2018-05-23T20:28:07.723Z,22.17
2018-05-23T20:30:36.356Z,22.10
2018-05-23T20:33:05.603Z,22.05
2018-05-23T20:35:35.025Z,21.98
2018-05-23T20:38:03.723Z,21.94
2018-05-23T20:40:32.631Z,21.92
2018-05-23T20:43:01.192Z,21.91
2018-05-23T20:45:29.630Z,21.87
2018-05-23T20:47:58.814Z,21.86
2018-05-23T20:50:27.187Z,21.91
2018-05-23T20:52:56.337Z,21.89
2018-05-23T20:55:25.511Z,21.87
2018-05-23T20:57:54.640Z,21.76
2018-05-23T21:00:23.867Z,21.72
2018-05-23T21:02:52.860Z,21.72
2018-05-23T21:05:22.522Z,21.69
2018-05-23T21:07:51.088Z,21.68
2018-05-23T21:10:20.257Z,21.65
2018-05-23T21:12:48.626Z,21.63
2018-05-23T21:15:17.254Z,21.58
2018-05-23T21:17:46.406Z,21.55
2018-05-23T21:20:14.773Z,21.56
2018-05-23T21:22:43.187Z,21.53
2018-05-23T21:25:11.548Z,21.50
2018-05-23T21:27:39.931Z,21.38
2018-05-23T21:33:40.891Z,21.35
2018-05-23T21:36:09.275Z,21.32
2018-05-23T21:38:37.629Z,21.21
2018-05-23T21:41:06.886Z,21.15
2018-05-23T21:43:36.033Z,21.18
2018-05-23T21:46:04.490Z,21.15
2018-05-23T21:48:33.049Z,21.12
2018-05-23T21:51:01.393Z,21.06
2018-05-23T21:53:29.799Z,21.03
2018-05-23T21:55:58.899Z,21.01
2018-05-23T21:58:27.291Z,21.01
2018-05-23T22:00:55.732Z,20.96
2018-05-23T22:03:24.339Z,20.94
2018-05-23T22:05:53.010Z,20.97
2018-05-23T22:08:22.212Z,20.87
2018-05-23T22:10:51.662Z,20.87
2018-05-23T22:13:20.067Z,20.82
2018-05-23T22:15:49.384Z,20.79
2018-05-23T22:18:17.878Z,20.77
2018-05-23T22:20:46.236Z,20.80
2018-05-23T22:23:14.687Z,20.81
2018-05-23T22:25:43.065Z,20.80
2018-05-23T22:28:11.828Z,20.73
2018-05-23T22:30:40.276Z,20.74
2018-05-23T22:33:09.394Z,20.70
2018-05-23T22:35:38.632Z,20.72
2018-05-23T22:38:07.734Z,20.63
2018-05-23T22:40:36.107Z,20.62
2018-05-23T22:43:04.484Z,20.57
2018-05-23T22:45:32.957Z,20.56
2018-05-23T22:48:01.438Z,20.50
2018-05-23T22:50:29.803Z,20.51
2018-05-23T22:52:59.118Z,20.50
2018-05-23T22:55:28.116Z,20.46
2018-05-23T22:57:56.805Z,20.41
2018-05-23T23:00:25.930Z,20.36
2018-05-23T23:02:54.285Z,20.33
2018-05-23T23:05:22.679Z,20.29
2018-05-23T23:07:51.445Z,20.28
2018-05-23T23:10:20.613Z,20.20
2018-05-23T23:12:49.142Z,20.21
2018-05-23T23:15:17.512Z,20.20
2018-05-23T23:17:45.931Z,20.22
2018-05-23T23:20:14.407Z,20.20
2018-05-23T23:22:43.564Z,20.20
2018-05-23T23:25:12.005Z,20.17
2018-05-23T23:27:41.182Z,20.11
2018-05-23T23:30:09.543Z,20.09
2018-05-23T23:32:37.943Z,20.05
2018-05-23T23:35:07.822Z,20.00
2018-05-23T23:37:37.009Z,20.02
2018-05-23T23:40:05.383Z,20.04
2018-05-23T23:42:33.785Z,20.01
2018-05-23T23:45:02.173Z,19.97
2018-05-23T23:47:30.542Z,19.89
2018-05-23T23:49:59.517Z,19.84
2018-05-23T23:52:28.231Z,19.82
2018-05-23T23:54:56.630Z,19.79
2018-05-23T23:57:27.672Z,19.74
2018-05-23T23:59:56.827Z,19.74
